sensor_id;sensor_type;location;lat;lon;timestamp;P1;durP1;ratioP1;P2;durP2;ratioP2
12445;SDS011;6287;50.984;7.022;2022-09-27T00:00:35;3.50;;;2.30;;
12445;SDS011;6287;50.984;7.022;2022-09-27T00:03:01;2.20;;;2.10;;
12445;SDS011;6287;50.984;7.022;2022-09-27T00:05:27;3.73;;;2.80;;
12445;SDS011;6287;50.984;7.022;2022-09-27T00:07:56;5.77;;;2.80;;
12445;SDS011;6287;50.984;7.022;2022-09-27T00:10:23;4.43;;;2.47;;
12445;SDS011;6287;50.984;7.022;2022-09-27T00:12:51;2.83;;;1.93;;
12445;SDS011;6287;50.984;7.022;2022-09-27T00:15:19;2.53;;;1.87;;
12445;SDS011;6287;50.984;7.022;2022-09-27T00:17:47;1.80;;;1.70;;
12445;SDS011;6287;50.984;7.022;2022-09-27T00:20:16;1.40;;;1.30;;
12445;SDS011;6287;50.984;7.022;2022-09-27T00:22:44;3.40;;;1.77;;
12445;SDS011;6287;50.984;7.022;2022-09-27T00:25:13;1.33;;;1.27;;
12445;SDS011;6287;50.984;7.022;2022-09-27T00:27:39;1.60;;;1.50;;
12445;SDS011;6287;50.984;7.022;2022-09-27T00:30:05;1.57;;;1.47;;
12445;SDS011;6287;50.984;7.022;2022-09-27T00:32:31;1.60;;;1.50;;
12445;SDS011;6287;50.984;7.022;2022-09-27T00:34:59;4.67;;;2.00;;
12445;SDS011;6287;50.984;7.022;2022-09-27T00:37:27;4.17;;;1.70;;
12445;SDS011;6287;50.984;7.022;2022-09-27T00:39:55;2.10;;;1.50;;
12445;SDS011;6287;50.984;7.022;2022-09-27T00:42:23;1.73;;;1.63;;
12445;SDS011;6287;50.984;7.022;2022-09-27T00:44:54;2.93;;;1.70;;
12445;SDS011;6287;50.984;7.022;2022-09-27T00:55:29;1.60;;;1.50;;
12445;SDS011;6287;50.984;7.022;2022-09-27T00:58:04;1.90;;;1.80;;
12445;SDS011;6287;50.984;7.022;2022-09-27T01:00:35;1.70;;;1.50;;
12445;SDS011;6287;50.984;7.022;2022-09-27T01:03:06;5.90;;;2.10;;
12445;SDS011;6287;50.984;7.022;2022-09-27T01:05:36;4.47;;;1.80;;
12445;SDS011;6287;50.984;7.022;2022-09-27T01:08:01;1.50;;;1.40;;
12445;SDS011;6287;50.984;7.022;2022-09-27T01:10:31;3.67;;;1.30;;
12445;SDS011;6287;50.984;7.022;2022-09-27T01:15:50;2.67;;;1.63;;
12445;SDS011;6287;50.984;7.022;2022-09-27T01:18:27;2.40;;;1.63;;
12445;SDS011;6287;50.984;7.022;2022-09-27T01:26:32;1.70;;;1.60;;
12445;SDS011;6287;50.984;7.022;2022-09-27T01:29:03;3.07;;;1.87;;
12445;SDS011;6287;50.984;7.022;2022-09-27T01:37:16;2.60;;;1.73;;
12445;SDS011;6287;50.984;7.022;2022-09-27T01:47:41;3.27;;;1.43;;
12445;SDS011;6287;50.984;7.022;2022-09-27T01:50:21;2.00;;;1.10;;
12445;SDS011;6287;50.984;7.022;2022-09-27T01:52:54;2.53;;;1.20;;
12445;SDS011;6287;50.984;7.022;2022-09-27T01:55:25;3.63;;;1.40;;
12445;SDS011;6287;50.984;7.022;2022-09-27T01:57:57;2.20;;;1.20;;
12445;SDS011;6287;50.984;7.022;2022-09-27T02:00:31;1.57;;;1.27;;
12445;SDS011;6287;50.984;7.022;2022-09-27T02:02:58;2.17;;;1.13;;
12445;SDS011;6287;50.984;7.022;2022-09-27T02:05:40;2.90;;;1.50;;
12445;SDS011;6287;50.984;7.022;2022-09-27T02:08:13;4.30;;;1.47;;
12445;SDS011;6287;50.984;7.022;2022-09-27T02:11:00;1.40;;;1.37;;
12445;SDS011;6287;50.984;7.022;2022-09-27T02:19:14;3.13;;;1.50;;
12445;SDS011;6287;50.984;7.022;2022-09-27T02:24:18;1.67;;;1.57;;
12445;SDS011;6287;50.984;7.022;2022-09-27T02:26:44;2.00;;;1.80;;
12445;SDS011;6287;50.984;7.022;2022-09-27T02:29:17;3.30;;;1.93;;
12445;SDS011;6287;50.984;7.022;2022-09-27T02:31:53;2.13;;;2.00;;
12445;SDS011;6287;50.984;7.022;2022-09-27T02:34:21;2.90;;;2.27;;
12445;SDS011;6287;50.984;7.022;2022-09-27T02:36:53;2.23;;;1.90;;
12445;SDS011;6287;50.984;7.022;2022-09-27T02:39:21;2.07;;;1.90;;
12445;SDS011;6287;50.984;7.022;2022-09-27T02:41:48;2.20;;;2.10;;
12445;SDS011;6287;50.984;7.022;2022-09-27T02:44:14;3.57;;;1.90;;
12445;SDS011;6287;50.984;7.022;2022-09-27T02:55:22;2.43;;;1.60;;
12445;SDS011;6287;50.984;7.022;2022-09-27T03:00:20;1.40;;;1.30;;
12445;SDS011;6287;50.984;7.022;2022-09-27T03:02:58;2.67;;;1.30;;
12445;SDS011;6287;50.984;7.022;2022-09-27T03:05:39;1.53;;;1.43;;
12445;SDS011;6287;50.984;7.022;2022-09-27T03:08:12;1.60;;;1.50;;
12445;SDS011;6287;50.984;7.022;2022-09-27T03:10:38;1.20;;;1.20;;
12445;SDS011;6287;50.984;7.022;2022-09-27T03:13:06;1.67;;;1.40;;
12445;SDS011;6287;50.984;7.022;2022-09-27T03:15:32;3.93;;;1.50;;
12445;SDS011;6287;50.984;7.022;2022-09-27T03:17:58;5.03;;;1.60;;
12445;SDS011;6287;50.984;7.022;2022-09-27T03:20:24;2.63;;;1.53;;
12445;SDS011;6287;50.984;7.022;2022-09-27T03:22:55;2.10;;;1.47;;
12445;SDS011;6287;50.984;7.022;2022-09-27T03:25:21;3.53;;;1.10;;
12445;SDS011;6287;50.984;7.022;2022-09-27T03:27:47;4.13;;;1.67;;
12445;SDS011;6287;50.984;7.022;2022-09-27T03:30:13;3.70;;;1.77;;
12445;SDS011;6287;50.984;7.022;2022-09-27T03:32:43;1.27;;;1.27;;
12445;SDS011;6287;50.984;7.022;2022-09-27T03:35:09;2.37;;;1.07;;
12445;SDS011;6287;50.984;7.022;2022-09-27T03:37:39;3.97;;;1.30;;
12445;SDS011;6287;50.984;7.022;2022-09-27T03:40:05;1.17;;;1.03;;
12445;SDS011;6287;50.984;7.022;2022-09-27T03:42:32;1.33;;;1.07;;
12445;SDS011;6287;50.984;7.022;2022-09-27T03:44:57;1.63;;;0.80;;
12445;SDS011;6287;50.984;7.022;2022-09-27T03:47:23;0.93;;;0.93;;
12445;SDS011;6287;50.984;7.022;2022-09-27T03:49:51;1.77;;;1.00;;
12445;SDS011;6287;50.984;7.022;2022-09-27T03:52:17;1.07;;;1.07;;
12445;SDS011;6287;50.984;7.022;2022-09-27T03:54:43;1.77;;;1.00;;
12445;SDS011;6287;50.984;7.022;2022-09-27T03:57:09;1.27;;;1.10;;
12445;SDS011;6287;50.984;7.022;2022-09-27T03:59:35;2.13;;;1.03;;
12445;SDS011;6287;50.984;7.022;2022-09-27T04:02:03;1.40;;;1.20;;
12445;SDS011;6287;50.984;7.022;2022-09-27T04:04:28;1.37;;;0.93;;
12445;SDS011;6287;50.984;7.022;2022-09-27T04:06:56;2.20;;;1.37;;
12445;SDS011;6287;50.984;7.022;2022-09-27T04:09:23;1.27;;;1.20;;
12445;SDS011;6287;50.984;7.022;2022-09-27T04:11:49;2.63;;;1.50;;
12445;SDS011;6287;50.984;7.022;2022-09-27T04:14:15;2.80;;;1.60;;
12445;SDS011;6287;50.984;7.022;2022-09-27T04:16:43;4.73;;;1.50;;
12445;SDS011;6287;50.984;7.022;2022-09-27T04:19:10;2.00;;;1.67;;
12445;SDS011;6287;50.984;7.022;2022-09-27T04:21:37;2.43;;;1.70;;
12445;SDS011;6287;50.984;7.022;2022-09-27T04:24:07;4.27;;;1.80;;
12445;SDS011;6287;50.984;7.022;2022-09-27T04:26:38;2.63;;;1.77;;
12445;SDS011;6287;50.984;7.022;2022-09-27T04:29:08;2.33;;;1.50;;
12445;SDS011;6287;50.984;7.022;2022-09-27T04:31:36;3.53;;;1.63;;
12445;SDS011;6287;50.984;7.022;2022-09-27T04:34:08;1.47;;;1.37;;
12445;SDS011;6287;50.984;7.022;2022-09-27T04:36:35;1.90;;;1.10;;
12445;SDS011;6287;50.984;7.022;2022-09-27T04:39:02;1.43;;;1.33;;
12445;SDS011;6287;50.984;7.022;2022-09-27T04:41:29;2.10;;;1.30;;
12445;SDS011;6287;50.984;7.022;2022-09-27T04:43:56;1.33;;;1.20;;
12445;SDS011;6287;50.984;7.022;2022-09-27T04:46:25;2.07;;;1.30;;
12445;SDS011;6287;50.984;7.022;2022-09-27T04:48:55;1.30;;;1.10;;
12445;SDS011;6287;50.984;7.022;2022-09-27T04:51:22;0.97;;;0.97;;
12445;SDS011;6287;50.984;7.022;2022-09-27T04:53:50;1.00;;;1.00;;
12445;SDS011;6287;50.984;7.022;2022-09-27T04:56:16;1.00;;;0.90;;
12445;SDS011;6287;50.984;7.022;2022-09-27T04:58:44;2.83;;;1.13;;
12445;SDS011;6287;50.984;7.022;2022-09-27T05:01:12;1.30;;;1.20;;
12445;SDS011;6287;50.984;7.022;2022-09-27T05:03:42;1.47;;;0.90;;
12445;SDS011;6287;50.984;7.022;2022-09-27T05:06:10;1.90;;;1.10;;
12445;SDS011;6287;50.984;7.022;2022-09-27T05:08:36;2.43;;;0.90;;
12445;SDS011;6287;50.984;7.022;2022-09-27T05:11:04;1.77;;;1.00;;
12445;SDS011;6287;50.984;7.022;2022-09-27T05:13:30;2.17;;;1.00;;
12445;SDS011;6287;50.984;7.022;2022-09-27T05:16:00;1.33;;;0.90;;
12445;SDS011;6287;50.984;7.022;2022-09-27T05:18:27;1.60;;;0.83;;
12445;SDS011;6287;50.984;7.022;2022-09-27T05:20:53;1.87;;;1.17;;
12445;SDS011;6287;50.984;7.022;2022-09-27T05:23:26;1.13;;;1.03;;
12445;SDS011;6287;50.984;7.022;2022-09-27T05:25:53;1.30;;;1.20;;
12445;SDS011;6287;50.984;7.022;2022-09-27T05:28:20;1.10;;;1.00;;
12445;SDS011;6287;50.984;7.022;2022-09-27T05:30:46;1.50;;;1.40;;
12445;SDS011;6287;50.984;7.022;2022-09-27T05:33:14;1.03;;;0.93;;
12445;SDS011;6287;50.984;7.022;2022-09-27T05:35:42;1.67;;;1.03;;
12445;SDS011;6287;50.984;7.022;2022-09-27T05:38:15;0.93;;;0.90;;
12445;SDS011;6287;50.984;7.022;2022-09-27T05:40:40;1.43;;;1.03;;
12445;SDS011;6287;50.984;7.022;2022-09-27T05:43:08;2.83;;;1.17;;
12445;SDS011;6287;50.984;7.022;2022-09-27T05:45:34;3.67;;;1.23;;
12445;SDS011;6287;50.984;7.022;2022-09-27T05:47:59;1.17;;;1.10;;
12445;SDS011;6287;50.984;7.022;2022-09-27T05:50:28;0.87;;;0.70;;
12445;SDS011;6287;50.984;7.022;2022-09-27T05:52:56;1.10;;;0.83;;
12445;SDS011;6287;50.984;7.022;2022-09-27T05:55:24;1.40;;;0.93;;
12445;SDS011;6287;50.984;7.022;2022-09-27T05:57:57;1.07;;;0.67;;
12445;SDS011;6287;50.984;7.022;2022-09-27T06:00:23;1.00;;;0.90;;
12445;SDS011;6287;50.984;7.022;2022-09-27T06:02:56;0.77;;;0.77;;
12445;SDS011;6287;50.984;7.022;2022-09-27T06:05:24;2.10;;;0.70;;
12445;SDS011;6287;50.984;7.022;2022-09-27T06:10:48;0.87;;;0.87;;
12445;SDS011;6287;50.984;7.022;2022-09-27T06:13:27;1.67;;;0.83;;
12445;SDS011;6287;50.984;7.022;2022-09-27T06:15:55;0.87;;;0.87;;
12445;SDS011;6287;50.984;7.022;2022-09-27T06:18:22;2.73;;;0.90;;
12445;SDS011;6287;50.984;7.022;2022-09-27T06:20:51;1.47;;;0.90;;
12445;SDS011;6287;50.984;7.022;2022-09-27T06:23:18;1.67;;;1.00;;
12445;SDS011;6287;50.984;7.022;2022-09-27T06:25:45;1.07;;;1.07;;
12445;SDS011;6287;50.984;7.022;2022-09-27T06:28:11;1.10;;;0.90;;
12445;SDS011;6287;50.984;7.022;2022-09-27T06:30:39;1.40;;;1.30;;
12445;SDS011;6287;50.984;7.022;2022-09-27T06:33:09;1.10;;;1.00;;
12445;SDS011;6287;50.984;7.022;2022-09-27T06:35:39;1.03;;;1.03;;
12445;SDS011;6287;50.984;7.022;2022-09-27T06:38:07;1.20;;;1.10;;
12445;SDS011;6287;50.984;7.022;2022-09-27T06:40:37;1.10;;;1.10;;
12445;SDS011;6287;50.984;7.022;2022-09-27T06:43:12;3.97;;;1.47;;
12445;SDS011;6287;50.984;7.022;2022-09-27T06:45:42;0.90;;;0.90;;
12445;SDS011;6287;50.984;7.022;2022-09-27T06:48:08;1.10;;;1.07;;
12445;SDS011;6287;50.984;7.022;2022-09-27T06:50:40;1.20;;;1.20;;
12445;SDS011;6287;50.984;7.022;2022-09-27T06:53:09;1.50;;;1.20;;
12445;SDS011;6287;50.984;7.022;2022-09-27T06:55:39;1.47;;;0.90;;
12445;SDS011;6287;50.984;7.022;2022-09-27T06:58:05;2.07;;;0.80;;
12445;SDS011;6287;50.984;7.022;2022-09-27T07:00:49;1.37;;;1.00;;
12445;SDS011;6287;50.984;7.022;2022-09-27T07:03:23;1.07;;;0.80;;
12445;SDS011;6287;50.984;7.022;2022-09-27T07:06:02;1.00;;;1.00;;
12445;SDS011;6287;50.984;7.022;2022-09-27T07:08:30;0.90;;;0.90;;
12445;SDS011;6287;50.984;7.022;2022-09-27T07:11:01;2.73;;;1.00;;
12445;SDS011;6287;50.984;7.022;2022-09-27T07:13:29;2.43;;;1.10;;
12445;SDS011;6287;50.984;7.022;2022-09-27T07:16:01;1.20;;;1.07;;
12445;SDS011;6287;50.984;7.022;2022-09-27T07:18:29;2.87;;;1.00;;
12445;SDS011;6287;50.984;7.022;2022-09-27T07:20:54;1.60;;;1.00;;
12445;SDS011;6287;50.984;7.022;2022-09-27T07:23:21;0.83;;;0.83;;
12445;SDS011;6287;50.984;7.022;2022-09-27T07:25:47;1.00;;;0.83;;
12445;SDS011;6287;50.984;7.022;2022-09-27T07:28:14;1.80;;;0.83;;
12445;SDS011;6287;50.984;7.022;2022-09-27T07:30:43;1.47;;;0.70;;
12445;SDS011;6287;50.984;7.022;2022-09-27T07:33:10;0.60;;;0.60;;
12445;SDS011;6287;50.984;7.022;2022-09-27T07:35:40;0.50;;;0.50;;
12445;SDS011;6287;50.984;7.022;2022-09-27T07:38:07;0.63;;;0.50;;
12445;SDS011;6287;50.984;7.022;2022-09-27T07:40:36;2.30;;;0.80;;
12445;SDS011;6287;50.984;7.022;2022-09-27T07:43:07;0.70;;;0.60;;
12445;SDS011;6287;50.984;7.022;2022-09-27T07:45:34;0.50;;;0.50;;
12445;SDS011;6287;50.984;7.022;2022-09-27T07:48:02;0.77;;;0.77;;
12445;SDS011;6287;50.984;7.022;2022-09-27T07:50:29;1.53;;;0.93;;
12445;SDS011;6287;50.984;7.022;2022-09-27T07:52:57;0.70;;;0.70;;
12445;SDS011;6287;50.984;7.022;2022-09-27T07:55:22;1.50;;;0.90;;
12445;SDS011;6287;50.984;7.022;2022-09-27T07:57:48;2.73;;;1.33;;
12445;SDS011;6287;50.984;7.022;2022-09-27T08:00:15;4.47;;;0.80;;
12445;SDS011;6287;50.984;7.022;2022-09-27T08:02:44;0.70;;;0.70;;
12445;SDS011;6287;50.984;7.022;2022-09-27T08:05:12;1.17;;;1.00;;
12445;SDS011;6287;50.984;7.022;2022-09-27T08:07:39;0.90;;;0.90;;
12445;SDS011;6287;50.984;7.022;2022-09-27T08:10:05;1.30;;;0.80;;
12445;SDS011;6287;50.984;7.022;2022-09-27T08:12:32;0.73;;;0.73;;
12445;SDS011;6287;50.984;7.022;2022-09-27T08:15:00;1.50;;;0.80;;
12445;SDS011;6287;50.984;7.022;2022-09-27T08:17:31;0.90;;;0.80;;
12445;SDS011;6287;50.984;7.022;2022-09-27T08:19:57;1.80;;;1.00;;
12445;SDS011;6287;50.984;7.022;2022-09-27T08:22:23;3.20;;;1.20;;
12445;SDS011;6287;50.984;7.022;2022-09-27T08:24:48;0.80;;;0.80;;
12445;SDS011;6287;50.984;7.022;2022-09-27T08:27:15;0.77;;;0.77;;
12445;SDS011;6287;50.984;7.022;2022-09-27T08:29:41;0.80;;;0.77;;
12445;SDS011;6287;50.984;7.022;2022-09-27T08:32:07;0.70;;;0.70;;
12445;SDS011;6287;50.984;7.022;2022-09-27T08:34:33;0.73;;;0.73;;
12445;SDS011;6287;50.984;7.022;2022-09-27T08:36:59;0.80;;;0.80;;
12445;SDS011;6287;50.984;7.022;2022-09-27T08:39:30;0.70;;;0.70;;
12445;SDS011;6287;50.984;7.022;2022-09-27T08:47:42;0.60;;;0.60;;
12445;SDS011;6287;50.984;7.022;2022-09-27T08:58:13;0.60;;;0.60;;
12445;SDS011;6287;50.984;7.022;2022-09-27T09:00:48;0.50;;;0.50;;
12445;SDS011;6287;50.984;7.022;2022-09-27T09:03:16;1.37;;;0.60;;
12445;SDS011;6287;50.984;7.022;2022-09-27T09:11:20;0.40;;;0.40;;
12445;SDS011;6287;50.984;7.022;2022-09-27T09:14:18;0.50;;;0.50;;
12445;SDS011;6287;50.984;7.022;2022-09-27T09:19:42;3.00;;;0.77;;
12445;SDS011;6287;50.984;7.022;2022-09-27T09:38:58;0.60;;;0.60;;
12445;SDS011;6287;50.984;7.022;2022-09-27T09:46:44;1.23;;;0.67;;
12445;SDS011;6287;50.984;7.022;2022-09-27T09:51:43;0.90;;;0.60;;
12445;SDS011;6287;50.984;7.022;2022-09-27T09:57:11;0.70;;;0.70;;
12445;SDS011;6287;50.984;7.022;2022-09-27T09:59:42;1.20;;;0.70;;
12445;SDS011;6287;50.984;7.022;2022-09-27T10:05:04;0.80;;;0.80;;
12445;SDS011;6287;50.984;7.022;2022-09-27T10:07:32;1.77;;;0.80;;
12445;SDS011;6287;50.984;7.022;2022-09-27T10:10:01;0.77;;;0.77;;
12445;SDS011;6287;50.984;7.022;2022-09-27T10:12:30;0.87;;;0.87;;
12445;SDS011;6287;50.984;7.022;2022-09-27T10:15:00;0.90;;;0.90;;
12445;SDS011;6287;50.984;7.022;2022-09-27T10:17:33;1.33;;;1.03;;
12445;SDS011;6287;50.984;7.022;2022-09-27T10:20:05;0.83;;;0.83;;
12445;SDS011;6287;50.984;7.022;2022-09-27T10:22:33;1.47;;;1.03;;
12445;SDS011;6287;50.984;7.022;2022-09-27T10:25:05;1.83;;;0.80;;
12445;SDS011;6287;50.984;7.022;2022-09-27T10:30:11;0.83;;;0.83;;
12445;SDS011;6287;50.984;7.022;2022-09-27T10:32:48;2.27;;;1.00;;
12445;SDS011;6287;50.984;7.022;2022-09-27T10:40:46;1.93;;;1.40;;
12445;SDS011;6287;50.984;7.022;2022-09-27T10:51:52;1.00;;;1.00;;
12445;SDS011;6287;50.984;7.022;2022-09-27T10:54:26;2.03;;;1.23;;
12445;SDS011;6287;50.984;7.022;2022-09-27T10:59:26;1.10;;;1.10;;
12445;SDS011;6287;50.984;7.022;2022-09-27T11:01:57;0.87;;;0.87;;
12445;SDS011;6287;50.984;7.022;2022-09-27T11:04:28;1.87;;;1.20;;
12445;SDS011;6287;50.984;7.022;2022-09-27T11:07:05;1.20;;;1.10;;
12445;SDS011;6287;50.984;7.022;2022-09-27T11:09:42;1.63;;;1.53;;
12445;SDS011;6287;50.984;7.022;2022-09-27T11:12:27;1.93;;;1.17;;
12445;SDS011;6287;50.984;7.022;2022-09-27T11:15:02;1.53;;;1.43;;
12445;SDS011;6287;50.984;7.022;2022-09-27T11:20:27;1.10;;;1.00;;
12445;SDS011;6287;50.984;7.022;2022-09-27T11:23:18;1.20;;;1.10;;
12445;SDS011;6287;50.984;7.022;2022-09-27T11:28:39;2.60;;;1.30;;
12445;SDS011;6287;50.984;7.022;2022-09-27T11:47:45;1.90;;;1.50;;
12445;SDS011;6287;50.984;7.022;2022-09-27T11:59:11;1.40;;;1.27;;
12445;SDS011;6287;50.984;7.022;2022-09-27T12:07:33;2.10;;;1.37;;
12445;SDS011;6287;50.984;7.022;2022-09-27T12:10:13;2.00;;;1.50;;
12445;SDS011;6287;50.984;7.022;2022-09-27T12:12:42;1.50;;;1.40;;
12445;SDS011;6287;50.984;7.022;2022-09-27T12:15:24;1.20;;;1.10;;
12445;SDS011;6287;50.984;7.022;2022-09-27T12:17:55;1.20;;;1.20;;
12445;SDS011;6287;50.984;7.022;2022-09-27T12:20:35;1.40;;;1.30;;
12445;SDS011;6287;50.984;7.022;2022-09-27T12:23:16;2.10;;;1.37;;
12445;SDS011;6287;50.984;7.022;2022-09-27T12:25:48;2.97;;;1.50;;
12445;SDS011;6287;50.984;7.022;2022-09-27T12:28:52;2.10;;;2.00;;
12445;SDS011;6287;50.984;7.022;2022-09-27T12:31:16;3.10;;;1.90;;
12445;SDS011;6287;50.984;7.022;2022-09-27T12:33:52;2.03;;;1.90;;
12445;SDS011;6287;50.984;7.022;2022-09-27T12:36:22;1.63;;;1.53;;
12445;SDS011;6287;50.984;7.022;2022-09-27T12:41:37;2.17;;;1.60;;
12445;SDS011;6287;50.984;7.022;2022-09-27T12:44:05;3.60;;;1.50;;
12445;SDS011;6287;50.984;7.022;2022-09-27T12:46:49;1.20;;;1.03;;
12445;SDS011;6287;50.984;7.022;2022-09-27T12:52:15;2.37;;;1.30;;
12445;SDS011;6287;50.984;7.022;2022-09-27T13:00:42;1.07;;;1.00;;
12445;SDS011;6287;50.984;7.022;2022-09-27T13:03:33;2.20;;;1.43;;
12445;SDS011;6287;50.984;7.022;2022-09-27T13:06:11;1.17;;;0.90;;
12445;SDS011;6287;50.984;7.022;2022-09-27T13:09:10;1.40;;;0.97;;
12445;SDS011;6287;50.984;7.022;2022-09-27T13:12:12;0.83;;;0.83;;
12445;SDS011;6287;50.984;7.022;2022-09-27T13:14:56;1.50;;;0.80;;
12445;SDS011;6287;50.984;7.022;2022-09-27T13:19:57;1.57;;;0.73;;
12445;SDS011;6287;50.984;7.022;2022-09-27T13:24:52;0.90;;;0.90;;
12445;SDS011;6287;50.984;7.022;2022-09-27T13:29:49;1.03;;;0.90;;
12445;SDS011;6287;50.984;7.022;2022-09-27T13:32:21;1.00;;;1.00;;
12445;SDS011;6287;50.984;7.022;2022-09-27T13:40:10;2.20;;;2.00;;
12445;SDS011;6287;50.984;7.022;2022-09-27T13:45:40;1.57;;;1.40;;
12445;SDS011;6287;50.984;7.022;2022-09-27T13:48:10;1.53;;;1.43;;
12445;SDS011;6287;50.984;7.022;2022-09-27T13:53:34;0.90;;;0.90;;
12445;SDS011;6287;50.984;7.022;2022-09-27T13:56:03;1.50;;;1.40;;
12445;SDS011;6287;50.984;7.022;2022-09-27T14:00:59;1.23;;;1.13;;
12445;SDS011;6287;50.984;7.022;2022-09-27T14:06:16;1.03;;;1.03;;
12445;SDS011;6287;50.984;7.022;2022-09-27T14:08:55;1.10;;;1.07;;
12445;SDS011;6287;50.984;7.022;2022-09-27T14:11:28;1.03;;;1.00;;
12445;SDS011;6287;50.984;7.022;2022-09-27T14:14:03;2.33;;;1.10;;
12445;SDS011;6287;50.984;7.022;2022-09-27T14:16:40;1.87;;;1.00;;
12445;SDS011;6287;50.984;7.022;2022-09-27T14:19:17;1.60;;;1.00;;
12445;SDS011;6287;50.984;7.022;2022-09-27T14:21:46;1.00;;;0.93;;
12445;SDS011;6287;50.984;7.022;2022-09-27T14:32:19;0.83;;;0.83;;
12445;SDS011;6287;50.984;7.022;2022-09-27T14:35:35;2.37;;;0.83;;
12445;SDS011;6287;50.984;7.022;2022-09-27T14:38:03;0.77;;;0.77;;
12445;SDS011;6287;50.984;7.022;2022-09-27T14:40:40;1.63;;;0.80;;
12445;SDS011;6287;50.984;7.022;2022-09-27T14:43:15;0.97;;;0.70;;
12445;SDS011;6287;50.984;7.022;2022-09-27T14:45:46;1.50;;;0.83;;
12445;SDS011;6287;50.984;7.022;2022-09-27T14:53:52;0.63;;;0.53;;
12445;SDS011;6287;50.984;7.022;2022-09-27T14:56:30;0.70;;;0.70;;
12445;SDS011;6287;50.984;7.022;2022-09-27T14:59:00;2.00;;;0.70;;
12445;SDS011;6287;50.984;7.022;2022-09-27T15:01:30;1.00;;;0.70;;
12445;SDS011;6287;50.984;7.022;2022-09-27T15:04:02;0.77;;;0.70;;
12445;SDS011;6287;50.984;7.022;2022-09-27T15:06:29;2.10;;;1.00;;
12445;SDS011;6287;50.984;7.022;2022-09-27T15:08:55;1.53;;;0.50;;
12445;SDS011;6287;50.984;7.022;2022-09-27T15:11:22;0.50;;;0.50;;
12445;SDS011;6287;50.984;7.022;2022-09-27T15:13:48;3.80;;;0.77;;
12445;SDS011;6287;50.984;7.022;2022-09-27T15:16:18;1.80;;;0.60;;
12445;SDS011;6287;50.984;7.022;2022-09-27T15:18:49;0.60;;;0.60;;
12445;SDS011;6287;50.984;7.022;2022-09-27T15:21:27;1.03;;;0.80;;
12445;SDS011;6287;50.984;7.022;2022-09-27T15:23:58;0.63;;;0.63;;
12445;SDS011;6287;50.984;7.022;2022-09-27T15:26:39;0.60;;;0.60;;
12445;SDS011;6287;50.984;7.022;2022-09-27T15:29:19;1.87;;;0.70;;
12445;SDS011;6287;50.984;7.022;2022-09-27T15:31:57;2.27;;;0.70;;
12445;SDS011;6287;50.984;7.022;2022-09-27T15:34:26;0.77;;;0.70;;
12445;SDS011;6287;50.984;7.022;2022-09-27T15:36:54;1.43;;;1.03;;
12445;SDS011;6287;50.984;7.022;2022-09-27T15:39:42;1.27;;;0.70;;
12445;SDS011;6287;50.984;7.022;2022-09-27T15:52:49;2.07;;;1.73;;
12445;SDS011;6287;50.984;7.022;2022-09-27T15:55:17;3.87;;;1.63;;
12445;SDS011;6287;50.984;7.022;2022-09-27T15:57:50;1.90;;;1.40;;
12445;SDS011;6287;50.984;7.022;2022-09-27T16:00:24;4.93;;;1.50;;
12445;SDS011;6287;50.984;7.022;2022-09-27T16:02:50;2.37;;;1.50;;
12445;SDS011;6287;50.984;7.022;2022-09-27T16:05:16;2.63;;;1.00;;
12445;SDS011;6287;50.984;7.022;2022-09-27T16:07:45;1.80;;;0.90;;
12445;SDS011;6287;50.984;7.022;2022-09-27T16:10:17;1.13;;;0.93;;
12445;SDS011;6287;50.984;7.022;2022-09-27T16:12:45;2.57;;;1.97;;
12445;SDS011;6287;50.984;7.022;2022-09-27T16:15:11;0.70;;;0.70;;
12445;SDS011;6287;50.984;7.022;2022-09-27T16:17:37;1.70;;;0.80;;
12445;SDS011;6287;50.984;7.022;2022-09-27T16:20:08;0.93;;;0.90;;
12445;SDS011;6287;50.984;7.022;2022-09-27T16:22:52;4.67;;;1.60;;
12445;SDS011;6287;50.984;7.022;2022-09-27T16:25:19;1.50;;;1.00;;
12445;SDS011;6287;50.984;7.022;2022-09-27T16:27:45;0.70;;;0.70;;
12445;SDS011;6287;50.984;7.022;2022-09-27T16:30:16;0.97;;;0.90;;
12445;SDS011;6287;50.984;7.022;2022-09-27T16:32:42;1.70;;;1.03;;
12445;SDS011;6287;50.984;7.022;2022-09-27T16:35:10;1.73;;;1.17;;
12445;SDS011;6287;50.984;7.022;2022-09-27T16:37:37;1.63;;;1.10;;
12445;SDS011;6287;50.984;7.022;2022-09-27T16:40:03;1.00;;;0.90;;
12445;SDS011;6287;50.984;7.022;2022-09-27T16:42:33;1.60;;;1.10;;
12445;SDS011;6287;50.984;7.022;2022-09-27T16:45:00;1.07;;;1.00;;
12445;SDS011;6287;50.984;7.022;2022-09-27T16:47:26;1.53;;;1.20;;
12445;SDS011;6287;50.984;7.022;2022-09-27T16:49:52;3.13;;;1.37;;
12445;SDS011;6287;50.984;7.022;2022-09-27T16:52:37;0.93;;;0.93;;
12445;SDS011;6287;50.984;7.022;2022-09-27T16:55:03;1.40;;;1.23;;
12445;SDS011;6287;50.984;7.022;2022-09-27T16:57:31;1.70;;;1.10;;
12445;SDS011;6287;50.984;7.022;2022-09-27T17:00:02;2.13;;;1.03;;
12445;SDS011;6287;50.984;7.022;2022-09-27T17:02:32;1.17;;;0.87;;
12445;SDS011;6287;50.984;7.022;2022-09-27T17:04:57;1.53;;;1.30;;
12445;SDS011;6287;50.984;7.022;2022-09-27T17:07:25;1.93;;;1.03;;
12445;SDS011;6287;50.984;7.022;2022-09-27T17:09:51;0.90;;;0.90;;
12445;SDS011;6287;50.984;7.022;2022-09-27T17:12:17;1.03;;;1.03;;
12445;SDS011;6287;50.984;7.022;2022-09-27T17:14:46;0.80;;;0.80;;
12445;SDS011;6287;50.984;7.022;2022-09-27T17:17:15;2.90;;;1.20;;
12445;SDS011;6287;50.984;7.022;2022-09-27T17:19:41;1.27;;;1.17;;
12445;SDS011;6287;50.984;7.022;2022-09-27T17:22:08;2.33;;;1.40;;
12445;SDS011;6287;50.984;7.022;2022-09-27T17:24:36;1.50;;;1.00;;
12445;SDS011;6287;50.984;7.022;2022-09-27T17:27:04;1.70;;;1.10;;
12445;SDS011;6287;50.984;7.022;2022-09-27T17:29:32;2.20;;;1.30;;
12445;SDS011;6287;50.984;7.022;2022-09-27T17:32:01;1.20;;;1.20;;
12445;SDS011;6287;50.984;7.022;2022-09-27T17:34:27;2.73;;;1.57;;
12445;SDS011;6287;50.984;7.022;2022-09-27T17:36:53;2.73;;;1.60;;
12445;SDS011;6287;50.984;7.022;2022-09-27T17:39:19;3.17;;;2.10;;
12445;SDS011;6287;50.984;7.022;2022-09-27T17:41:45;1.73;;;1.60;;
12445;SDS011;6287;50.984;7.022;2022-09-27T17:44:15;1.97;;;1.60;;
12445;SDS011;6287;50.984;7.022;2022-09-27T17:46:47;2.03;;;1.63;;
12445;SDS011;6287;50.984;7.022;2022-09-27T17:49:35;2.63;;;1.70;;
12445;SDS011;6287;50.984;7.022;2022-09-27T17:52:19;3.30;;;1.77;;
12445;SDS011;6287;50.984;7.022;2022-09-27T17:54:44;1.80;;;1.70;;
12445;SDS011;6287;50.984;7.022;2022-09-27T17:57:12;4.93;;;2.20;;
12445;SDS011;6287;50.984;7.022;2022-09-27T17:59:37;3.73;;;2.23;;
12445;SDS011;6287;50.984;7.022;2022-09-27T18:02:03;2.87;;;2.57;;
12445;SDS011;6287;50.984;7.022;2022-09-27T18:04:34;4.40;;;2.07;;
12445;SDS011;6287;50.984;7.022;2022-09-27T18:06:59;3.77;;;2.23;;
12445;SDS011;6287;50.984;7.022;2022-09-27T18:09:25;5.03;;;2.60;;
12445;SDS011;6287;50.984;7.022;2022-09-27T18:11:51;2.40;;;2.17;;
12445;SDS011;6287;50.984;7.022;2022-09-27T18:14:19;1.77;;;1.67;;
12445;SDS011;6287;50.984;7.022;2022-09-27T18:16:50;2.67;;;2.30;;
12445;SDS011;6287;50.984;7.022;2022-09-27T18:19:22;2.50;;;2.30;;
12445;SDS011;6287;50.984;7.022;2022-09-27T18:21:50;5.00;;;2.53;;
12445;SDS011;6287;50.984;7.022;2022-09-27T18:24:16;2.50;;;2.30;;
12445;SDS011;6287;50.984;7.022;2022-09-27T18:26:44;4.07;;;2.50;;
12445;SDS011;6287;50.984;7.022;2022-09-27T18:29:15;2.43;;;2.23;;
12445;SDS011;6287;50.984;7.022;2022-09-27T18:31:43;7.70;;;2.17;;
12445;SDS011;6287;50.984;7.022;2022-09-27T18:34:11;3.53;;;2.53;;
12445;SDS011;6287;50.984;7.022;2022-09-27T18:36:39;4.10;;;2.67;;
12445;SDS011;6287;50.984;7.022;2022-09-27T18:39:09;4.80;;;2.17;;
12445;SDS011;6287;50.984;7.022;2022-09-27T18:41:36;2.33;;;2.00;;
12445;SDS011;6287;50.984;7.022;2022-09-27T18:44:02;3.77;;;1.87;;
12445;SDS011;6287;50.984;7.022;2022-09-27T18:46:32;3.47;;;2.00;;
12445;SDS011;6287;50.984;7.022;2022-09-27T18:48:59;1.97;;;1.80;;
12445;SDS011;6287;50.984;7.022;2022-09-27T18:51:28;2.27;;;2.00;;
12445;SDS011;6287;50.984;7.022;2022-09-27T18:53:55;1.80;;;1.70;;
12445;SDS011;6287;50.984;7.022;2022-09-27T18:56:25;2.60;;;2.10;;
12445;SDS011;6287;50.984;7.022;2022-09-27T18:58:52;2.97;;;1.67;;